Friday, April 29, 2016, 1:45 PM EDT
Back to Local

KMTP, Montauk Airport

Location: Montauk, NY, United States Lat: 41.067
Local Time: 1:45 PM EDT (17:45 GMT) Lon: -71.917
Time Zone: US/Eastern Elev: 6 ft

Show me the last for .
Show Coded

Time T Td Feel RH Dir Speed Gust Alt SLP Vis Weather Sky Remarks
2016-04-29 11:54 50 36 44 58 70° 13 20 30.17 30.17 0 None
2016-04-29 10:54 50 36 44 58 90° 9 20 30.18 30.18 0 None
2016-04-29 09:54 50 35 44 56 70° 10 18 30.16 30.16 0 None
2016-04-29 08:54 48 35 45 60 Variable 6 - 30.16 30.16 0 None
2016-04-29 07:54 47 35 39 63 80° 9 21 30.14 30.14 0 6-hr Min Temp (8am): 46.0°F
6-hr Max Temp (8am): 46.9°F
2016-04-29 06:54 46 34 39 62 80° 8 17 30.14 30.14 0 None
2016-04-29 05:54 46 36 42 67 70° 7 - 30.13 30.13 0 None
2016-04-29 04:54 46 37 42 70 60° 8 - 30.10 30.10 0 None
2016-04-29 03:54 46 38 42 73 60° 8 - 30.11 30.10 0 None
2016-04-29 02:54 46 38 44 73 60° 5 - 30.10 30.10 0 None
2016-04-29 01:54 46 38 44 73 100° 5 - 30.08 30.08 0 6-hr Min Temp (2am): 46.0°F
6-hr Max Temp (2am): 46.9°F
2016-04-29 00:54 46 36 44 67 100° 5 - 30.09 30.09 0 24-hr Min Temp (1am): 46.0°F
24-hr Max Temp (1am): 54.0°F
2016-04-28 23:54 47 35 - 63 - Calm - 30.09 30.09 0 None
2016-04-28 22:54 47 35 46 63 100° 3 - 30.10 30.09 0 None
2016-04-28 21:54 47 35 45 63 Variable 5 - 30.10 30.10 0 None
2016-04-28 20:54 47 35 45 63 Variable 5 - 30.10 30.09 0 None
2016-04-28 19:54 47 36 45 65 Variable 5 - 30.08 30.08 0 6-hr Min Temp (8pm): 46.9°F
6-hr Max Temp (8pm): 52.0°F
2016-04-28 18:54 48 37 45 65 160° 6 - 30.07 30.06 0 None
2016-04-28 17:54 48 36 45 62 160° 6 - 30.07 30.07 0 None
2016-04-28 16:54 49 38 45 65 170° 8 - 30.06 30.06 0 None
2016-04-28 15:54 49 37 45 63 160° 9 - 30.06 30.06 0 None
2016-04-28 14:54 50 34 47 53 140° 7 - 30.06 30.06 0 None
2016-04-28 13:54 50 30 47 45 Variable 7 - 30.07 30.07 0 6-hr Min Temp (2pm): 48.0°F
6-hr Max Temp (2pm): 54.0°F

Support USWX by starting your Amazon purchase here.